createdAt,value
2022-12-15T05:03:31.333Z,-7.60
2022-12-15T05:06:20.282Z,-7.90
2022-12-15T05:09:05.590Z,-7.70
2022-12-15T05:11:51.015Z,-7.40
2022-12-15T05:14:38.321Z,-7.00
2022-12-15T05:17:28.375Z,-6.70
2022-12-15T05:20:29.370Z,-6.50
2022-12-15T05:23:20.090Z,-6.60
2022-12-15T05:29:11.754Z,-7.20
2022-12-15T05:31:55.342Z,-7.20
2022-12-15T05:34:29.179Z,-7.50
2022-12-15T05:37:03.222Z,-7.80
2022-12-15T05:39:31.339Z,-8.00
2022-12-15T05:41:59.676Z,-8.00
2022-12-15T05:44:28.011Z,-7.90
2022-12-15T05:47:04.254Z,-8.00
2022-12-15T05:49:37.303Z,-8.10
2022-12-15T05:52:49.475Z,-8.00
2022-12-15T05:55:46.578Z,-7.70
2022-12-15T05:58:45.435Z,-7.10
2022-12-15T06:01:55.424Z,-6.90
2022-12-15T06:04:29.411Z,-7.50
2022-12-15T06:07:01.518Z,-7.90
2022-12-15T06:09:33.692Z,-7.90
2022-12-15T06:12:02.571Z,-8.00
2022-12-15T06:14:31.418Z,-8.10
2022-12-15T06:17:00.485Z,-8.10
2022-12-15T06:19:29.199Z,-7.90
2022-12-15T06:22:05.721Z,-7.60
2022-12-15T06:25:00.756Z,-7.30
2022-12-15T06:27:38.433Z,-7.00
2022-12-15T06:30:10.133Z,-6.70
2022-12-15T06:32:40.138Z,-6.80
2022-12-15T06:35:10.705Z,-6.90
2022-12-15T06:37:38.768Z,-6.80
2022-12-15T06:40:09.962Z,-7.20
2022-12-15T06:42:38.398Z,-7.50
2022-12-15T06:45:08.221Z,-7.80
2022-12-15T06:47:36.286Z,-8.00
2022-12-15T06:50:04.636Z,-8.10
2022-12-15T06:52:32.706Z,-7.70
2022-12-15T06:55:00.970Z,-7.40
2022-12-15T06:57:30.789Z,-7.40
2022-12-15T06:59:58.795Z,-7.50
2022-12-15T07:02:29.039Z,-7.40
2022-12-15T07:04:57.385Z,-7.30
2022-12-15T07:07:25.490Z,-7.60
2022-12-15T07:09:53.515Z,-7.70
2022-12-15T07:12:21.603Z,-8.00
2022-12-15T07:14:53.549Z,-8.10
2022-12-15T07:17:21.849Z,-7.90
2022-12-15T07:19:49.976Z,-7.80
2022-12-15T07:22:18.063Z,-7.80
2022-12-15T07:24:46.197Z,-7.70
2022-12-15T07:27:14.446Z,-7.60
2022-12-15T07:29:42.643Z,-7.40
2022-12-15T07:32:12.107Z,-7.10
2022-12-15T07:34:40.179Z,-7.10
2022-12-15T07:37:08.323Z,-7.20
2022-12-15T07:39:36.404Z,-7.40
2022-12-15T07:42:04.667Z,-7.60
2022-12-15T07:44:32.804Z,-7.80
2022-12-15T07:47:01.324Z,-7.70
2022-12-15T07:49:30.812Z,-7.60
2022-12-15T07:52:05.078Z,-7.50
2022-12-15T07:54:33.342Z,-7.70
2022-12-15T07:57:03.152Z,-7.80
2022-12-15T07:59:31.751Z,-7.70
2022-12-15T08:02:01.447Z,-7.60
2022-12-15T08:05:25.400Z,-7.40
2022-12-15T08:12:38.215Z,-7.10
2022-12-15T08:15:09.165Z,-7.50
2022-12-15T08:17:38.514Z,-7.80
2022-12-15T08:20:10.145Z,-7.80
2022-12-15T08:22:38.570Z,-7.70
2022-12-15T08:25:07.278Z,-7.30
2022-12-15T08:27:36.986Z,-7.00
2022-12-15T08:30:05.905Z,-6.90
2022-12-15T08:32:34.024Z,-6.90
2022-12-15T08:35:02.147Z,-7.10
2022-12-15T08:37:30.885Z,-7.40
2022-12-15T08:39:58.865Z,-7.60
2022-12-15T08:42:27.141Z,-7.40
2022-12-15T08:44:56.907Z,-7.60
2022-12-15T08:47:24.918Z,-7.60
2022-12-15T08:49:54.440Z,-7.60
2022-12-15T08:52:22.857Z,-7.40
2022-12-15T08:54:51.059Z,-7.20
2022-12-15T08:57:19.087Z,-7.00
2022-12-15T08:59:47.217Z,-6.90
2022-12-15T09:02:16.791Z,-6.80
2022-12-15T09:04:45.397Z,-6.70
2022-12-15T09:07:13.650Z,-6.90
2022-12-15T09:09:41.809Z,-6.80
2022-12-15T09:12:12.887Z,-6.90
2022-12-15T09:14:41.124Z,-6.80
2022-12-15T09:17:09.321Z,-6.80
2022-12-15T09:19:38.805Z,-7.00
2022-12-15T09:22:07.876Z,-6.90
2022-12-15T09:24:35.980Z,-6.60
2022-12-15T09:27:04.908Z,-6.40
2022-12-15T09:29:33.261Z,-6.20
2022-12-15T09:32:16.945Z,-6.20
2022-12-15T09:34:47.090Z,-6.20
2022-12-15T09:37:19.846Z,-6.50
2022-12-15T09:39:48.580Z,-6.20
2022-12-15T09:42:28.713Z,-6.10
2022-12-15T09:45:03.777Z,-6.10
2022-12-15T09:47:38.842Z,-6.10
2022-12-15T09:50:12.661Z,-6.10
2022-12-15T09:52:48.912Z,-6.10
2022-12-15T09:55:24.386Z,-6.20
2022-12-15T09:57:55.601Z,-6.10
2022-12-15T10:00:28.461Z,-6.10
2022-12-15T10:03:32.275Z,-6.00
2022-12-15T10:06:21.803Z,-5.90
2022-12-15T10:08:56.542Z,-5.70
2022-12-15T10:11:50.717Z,-5.60
2022-12-15T10:20:55.498Z,-5.20
2022-12-15T10:38:11.517Z,-4.40
2022-12-15T10:41:00.005Z,-4.30
2022-12-15T10:43:38.884Z,-4.40
2022-12-15T10:46:30.884Z,-4.20
2022-12-15T10:49:33.751Z,-4.10
2022-12-15T10:52:23.296Z,-3.90
2022-12-15T10:55:49.984Z,-3.80
2022-12-15T10:58:43.724Z,-3.70
2022-12-15T11:01:45.053Z,-3.50
2022-12-15T11:07:46.498Z,-3.30
2022-12-15T11:10:31.404Z,-3.20
2022-12-15T11:13:12.032Z,-3.10
2022-12-15T11:15:51.371Z,-2.90
2022-12-15T11:18:44.005Z,-2.90
2022-12-15T11:21:28.863Z,-2.70
2022-12-15T11:24:05.719Z,-2.70
2022-12-15T11:26:42.805Z,-2.50
2022-12-15T11:29:20.384Z,-2.50
2022-12-15T11:31:50.606Z,-2.30
2022-12-15T11:34:21.085Z,-2.20
2022-12-15T11:36:59.922Z,-2.10
2022-12-15T11:39:48.768Z,-2.00
2022-12-15T11:42:24.338Z,-1.90
2022-12-15T11:44:59.789Z,-1.80
2022-12-15T11:47:35.849Z,-1.80
2022-12-15T11:50:11.266Z,-1.70
2022-12-15T11:52:49.535Z,-1.60
2022-12-15T11:55:27.784Z,-1.50
2022-12-15T11:58:34.013Z,-1.50
2022-12-15T12:01:06.750Z,-1.40
2022-12-15T12:03:42.491Z,-1.20
2022-12-15T12:06:14.436Z,-1.40
2022-12-15T12:09:01.577Z,-1.40
2022-12-15T12:11:33.296Z,-1.20
2022-12-15T12:14:20.224Z,-1.20
2022-12-15T12:16:56.878Z,-1.20
2022-12-15T12:19:32.377Z,-1.10
2022-12-15T12:25:15.302Z,-1.00
2022-12-15T12:27:51.226Z,-0.90
2022-12-15T12:38:15.745Z,-0.60
2022-12-15T12:48:30.369Z,-0.50
2022-12-15T13:36:37.602Z,-0.20
2022-12-15T13:44:19.668Z,0.10
2022-12-15T13:48:29.956Z,0.20
2022-12-15T13:51:43.842Z,0.20
2022-12-15T14:06:29.357Z,0.00
2022-12-15T14:17:43.939Z,0.10
2022-12-15T14:21:09.243Z,0.10
2022-12-15T14:27:24.814Z,0.00
2022-12-15T14:30:13.530Z,-0.10
2022-12-15T14:32:42.443Z,-0.10
2022-12-15T14:35:15.821Z,-0.20
2022-12-15T14:37:43.967Z,-0.30
2022-12-15T14:40:15.892Z,-0.20
2022-12-15T14:42:46.325Z,-0.30
2022-12-15T14:45:20.753Z,-0.40
2022-12-15T14:48:13.420Z,-0.40
2022-12-15T14:50:47.598Z,-0.40
2022-12-15T14:53:18.463Z,-0.50
2022-12-15T14:55:51.459Z,-0.60
2022-12-15T14:58:37.051Z,-0.60
2022-12-15T15:01:23.909Z,-0.70
2022-12-15T15:04:01.712Z,-0.90
2022-12-15T15:06:52.323Z,-1.10
2022-12-15T15:09:30.374Z,-1.20
2022-12-15T15:12:02.336Z,-1.30
2022-12-15T15:15:02.319Z,-1.30
2022-12-15T15:31:57.191Z,-1.70
2022-12-15T15:46:55.028Z,-2.10
2022-12-15T15:49:37.892Z,-2.00
2022-12-15T15:52:07.620Z,-1.80
2022-12-15T15:54:36.826Z,-1.90
2022-12-15T15:57:04.986Z,-1.90
2022-12-15T15:59:33.009Z,-1.90
2022-12-15T16:02:02.347Z,-2.00
2022-12-15T16:04:30.547Z,-2.00
2022-12-15T16:07:02.011Z,-2.10
2022-12-15T16:09:30.019Z,-2.50
2022-12-15T16:11:59.464Z,-2.70
2022-12-15T16:14:27.523Z,-2.90
2022-12-15T16:16:55.540Z,-2.80
2022-12-15T16:19:23.961Z,-2.60
2022-12-15T16:21:52.261Z,-2.90
2022-12-15T16:24:22.788Z,-2.80
2022-12-15T16:26:51.584Z,-2.60
2022-12-15T16:29:21.825Z,-2.60
2022-12-15T16:31:50.029Z,-2.60
2022-12-15T16:34:19.186Z,-2.70
2022-12-15T16:36:47.487Z,-3.00
2022-12-15T16:39:27.223Z,-3.30
2022-12-15T16:41:56.541Z,-3.50
2022-12-15T16:44:24.842Z,-3.40
2022-12-15T16:46:53.023Z,-3.40
2022-12-15T16:49:21.139Z,-3.20
2022-12-15T16:51:52.001Z,-3.00
2022-12-15T16:54:23.203Z,-2.90
2022-12-15T16:56:53.754Z,-2.90
2022-12-15T16:59:33.158Z,-3.00
2022-12-15T17:02:02.379Z,-3.00
2022-12-15T17:04:30.573Z,-3.10
2022-12-15T17:07:02.296Z,-3.40
2022-12-15T17:09:30.514Z,-3.60
2022-12-15T17:12:07.285Z,-3.90
2022-12-15T17:14:36.011Z,-4.00
2022-12-15T17:17:04.176Z,-3.70
2022-12-15T17:19:32.259Z,-3.40
2022-12-15T17:22:00.325Z,-3.30
2022-12-15T17:24:28.506Z,-3.40
2022-12-15T17:26:56.530Z,-3.70
2022-12-15T17:29:26.490Z,-3.60
2022-12-15T17:31:54.686Z,-3.50
2022-12-15T17:34:30.430Z,-3.70
2022-12-15T17:37:00.802Z,-4.10
2022-12-15T17:39:29.470Z,-4.30
2022-12-15T17:42:01.182Z,-4.30
2022-12-15T17:44:36.219Z,-4.10
2022-12-15T17:47:07.517Z,-4.10
2022-12-15T17:49:38.618Z,-4.30
2022-12-15T17:52:11.855Z,-4.20
2022-12-15T17:54:39.938Z,-4.00
2022-12-15T17:57:10.646Z,-3.80
2022-12-15T17:59:40.096Z,-3.70
2022-12-15T18:02:10.754Z,-3.60
2022-12-15T18:04:38.950Z,-3.60
2022-12-15T18:07:07.296Z,-3.90
2022-12-15T18:09:35.358Z,-4.10
2022-12-15T18:12:03.369Z,-4.10
2022-12-15T18:14:31.510Z,-4.00
2022-12-15T18:17:00.977Z,-3.80
2022-12-15T18:19:34.800Z,-3.80
2022-12-15T18:22:03.688Z,-3.90
2022-12-15T18:24:31.735Z,-4.10
2022-12-15T18:26:59.882Z,-4.30
2022-12-15T18:29:28.042Z,-4.70
2022-12-15T18:31:56.981Z,-4.90
2022-12-15T18:34:26.454Z,-5.10
2022-12-15T18:36:54.521Z,-5.20
2022-12-15T18:39:24.520Z,-5.20
2022-12-15T18:41:54.700Z,-5.30
2022-12-15T18:44:24.287Z,-5.30
2022-12-15T18:46:59.476Z,-5.20
2022-12-15T18:49:59.342Z,-4.60
2022-12-15T18:56:37.889Z,-4.40
2022-12-15T18:59:15.640Z,-4.20
2022-12-15T19:01:44.174Z,-4.10
2022-12-15T19:04:12.627Z,-4.20
2022-12-15T19:06:42.243Z,-4.80
2022-12-15T19:09:15.645Z,-5.10
2022-12-15T19:12:04.022Z,-5.30
2022-12-15T19:14:51.681Z,-4.90
2022-12-15T19:17:39.629Z,-4.70
2022-12-15T19:20:31.844Z,-5.20
2022-12-15T19:23:01.247Z,-5.50
2022-12-15T19:25:33.006Z,-5.50
2022-12-15T19:28:01.809Z,-5.40
2022-12-15T19:30:40.309Z,-5.10
2022-12-15T19:33:14.546Z,-5.10
2022-12-15T19:35:46.027Z,-5.00
2022-12-15T19:38:21.742Z,-4.80
2022-12-15T19:40:53.256Z,-4.70
2022-12-15T19:43:22.402Z,-5.10
2022-12-15T19:45:51.978Z,-5.00
2022-12-15T19:48:23.702Z,-4.80
2022-12-15T19:50:54.848Z,-4.70
2022-12-15T19:53:26.728Z,-4.60
2022-12-15T19:55:56.530Z,-4.70
2022-12-15T19:58:28.508Z,-4.70
2022-12-15T20:00:58.110Z,-5.30
2022-12-15T20:03:26.844Z,-5.50
2022-12-15T20:05:56.586Z,-5.30
2022-12-15T20:08:28.185Z,-5.10
2022-12-15T20:10:57.699Z,-4.90
2022-12-15T20:13:27.133Z,-4.80
2022-12-15T20:16:18.881Z,-5.30
2022-12-15T20:18:47.319Z,-5.60
2022-12-15T20:21:20.579Z,-5.70
2022-12-15T20:23:54.052Z,-5.80
2022-12-15T20:26:22.773Z,-6.00
2022-12-15T20:28:50.965Z,-5.90
2022-12-15T20:31:22.422Z,-5.60
2022-12-15T20:33:51.079Z,-5.40
2022-12-15T20:36:21.350Z,-5.30
2022-12-15T20:38:51.270Z,-5.40
2022-12-15T20:41:23.546Z,-5.80
2022-12-15T20:44:10.236Z,-5.70
2022-12-15T20:46:38.476Z,-5.60
2022-12-15T20:49:11.446Z,-5.90
2022-12-15T20:51:39.613Z,-6.10
2022-12-15T20:54:17.292Z,-6.00
2022-12-15T20:56:45.855Z,-5.90
2022-12-15T20:59:13.983Z,-5.70
2022-12-15T21:01:43.162Z,-5.60
2022-12-15T21:04:22.383Z,-5.50
2022-12-15T21:06:54.579Z,-6.10
2022-12-15T21:09:25.019Z,-6.40
2022-12-15T21:11:54.579Z,-6.20
2022-12-15T21:14:24.023Z,-5.90
2022-12-15T21:16:52.261Z,-5.70
2022-12-15T21:19:22.133Z,-5.70
2022-12-15T21:21:55.265Z,-5.60
2022-12-15T21:24:26.781Z,-6.20
2022-12-15T21:26:55.219Z,-6.40
2022-12-15T21:29:25.403Z,-6.20
2022-12-15T21:31:53.517Z,-5.90
2022-12-15T21:34:21.795Z,-5.80
2022-12-15T21:36:54.832Z,-5.80
2022-12-15T21:39:29.537Z,-6.10
2022-12-15T21:41:59.670Z,-6.30
2022-12-15T21:44:27.757Z,-6.50
2022-12-15T21:46:55.926Z,-6.20
2022-12-15T21:49:23.400Z,-6.00
2022-12-15T21:51:54.995Z,-6.20
2022-12-15T21:54:30.360Z,-6.30
2022-12-15T21:57:00.858Z,-6.10
2022-12-15T21:59:30.726Z,-6.60
2022-12-15T22:02:00.541Z,-6.40
2022-12-15T22:04:31.165Z,-6.00
2022-12-15T22:06:59.266Z,-6.00
2022-12-15T22:09:27.441Z,-6.40
2022-12-15T22:11:57.085Z,-6.70
2022-12-15T22:14:28.542Z,-6.80
2022-12-15T22:16:57.094Z,-6.60
2022-12-15T22:19:25.736Z,-6.40
2022-12-15T22:21:54.062Z,-6.80
2022-12-15T22:24:22.222Z,-7.10
2022-12-15T22:26:50.367Z,-7.20
2022-12-15T22:29:19.677Z,-7.30
2022-12-15T22:31:49.604Z,-7.40
2022-12-15T22:34:19.479Z,-7.40
2022-12-15T22:36:47.910Z,-7.50
2022-12-15T22:39:16.156Z,-7.20
2022-12-15T22:41:46.503Z,-7.50
2022-12-15T22:44:17.988Z,-7.60
2022-12-15T22:46:46.292Z,-7.70
2022-12-15T22:49:18.794Z,-7.70
